sensor_id;sensor_type;location;lat;lon;timestamp;pressure;altitude;pressure_sealevel;temperature;humidity
51289;BME280;37372;52.294;5.152;2023-05-19T00:00:22;102829.59;;;8.68;79.66
51289;BME280;37372;52.294;5.152;2023-05-19T00:02:55;102827.91;;;8.59;79.84
51289;BME280;37372;52.294;5.152;2023-05-19T00:05:21;102823.09;;;8.53;79.80
51289;BME280;37372;52.294;5.152;2023-05-19T00:07:50;102816.78;;;8.52;80.27
51289;BME280;37372;52.294;5.152;2023-05-19T00:10:18;102817.44;;;8.46;80.55
51289;BME280;37372;52.294;5.152;2023-05-19T00:12:51;102817.78;;;8.43;80.82
51289;BME280;37372;52.294;5.152;2023-05-19T00:15:20;102816.91;;;8.43;80.97
51289;BME280;37372;52.294;5.152;2023-05-19T00:17:49;102817.63;;;8.45;81.32
51289;BME280;37372;52.294;5.152;2023-05-19T00:20:16;102812.16;;;8.45;81.22
51289;BME280;37372;52.294;5.152;2023-05-19T00:25:32;102817.59;;;8.36;80.77
51289;BME280;37372;52.294;5.152;2023-05-19T00:28:01;102811.75;;;8.31;81.56
51289;BME280;37372;52.294;5.152;2023-05-19T00:30:27;102809.53;;;8.35;81.37
51289;BME280;37372;52.294;5.152;2023-05-19T00:32:54;102810.38;;;8.27;81.54
51289;BME280;37372;52.294;5.152;2023-05-19T00:35:20;102812.06;;;8.28;81.85
51289;BME280;37372;52.294;5.152;2023-05-19T00:37:52;102808.47;;;8.20;81.59
51289;BME280;37372;52.294;5.152;2023-05-19T00:40:24;102808.97;;;8.23;82.04
51289;BME280;37372;52.294;5.152;2023-05-19T00:42:57;102806.91;;;8.17;81.93
51289;BME280;37372;52.294;5.152;2023-05-19T00:45:23;102801.78;;;8.14;82.08
51289;BME280;37372;52.294;5.152;2023-05-19T00:47:56;102806.41;;;8.13;82.10
51289;BME280;37372;52.294;5.152;2023-05-19T00:50:33;102801.13;;;8.20;82.35
51289;BME280;37372;52.294;5.152;2023-05-19T00:52:58;102802.28;;;8.18;82.41
51289;BME280;37372;52.294;5.152;2023-05-19T00:55:27;102801.06;;;8.04;82.16
51289;BME280;37372;52.294;5.152;2023-05-19T00:58:03;102802.47;;;8.08;82.74
51289;BME280;37372;52.294;5.152;2023-05-19T01:00:30;102813.03;;;8.03;82.58
51289;BME280;37372;52.294;5.152;2023-05-19T01:02:58;102817.47;;;8.04;82.99
51289;BME280;37372;52.294;5.152;2023-05-19T01:05:25;102807.06;;;7.99;82.58
51289;BME280;37372;52.294;5.152;2023-05-19T01:08:08;102807.25;;;8.06;82.67
51289;BME280;37372;52.294;5.152;2023-05-19T01:10:36;102803.97;;;8.02;83.35
51289;BME280;37372;52.294;5.152;2023-05-19T01:16:13;102795.75;;;7.94;83.20
51289;BME280;37372;52.294;5.152;2023-05-19T01:21:45;102792.84;;;7.96;83.47
51289;BME280;37372;52.294;5.152;2023-05-19T01:32:52;102780.50;;;7.83;83.93
51289;BME280;37372;52.294;5.152;2023-05-19T01:35:23;102783.06;;;7.85;84.08
51289;BME280;37372;52.294;5.152;2023-05-19T01:37:51;102783.06;;;7.85;84.33
51289;BME280;37372;52.294;5.152;2023-05-19T01:40:20;102784.47;;;7.89;84.31
51289;BME280;37372;52.294;5.152;2023-05-19T01:42:56;102773.72;;;7.87;84.53
51289;BME280;37372;52.294;5.152;2023-05-19T01:45:22;102783.91;;;7.85;84.10
51289;BME280;37372;52.294;5.152;2023-05-19T01:47:51;102773.88;;;7.86;83.93
51289;BME280;37372;52.294;5.152;2023-05-19T01:50:17;102766.84;;;7.83;84.25
51289;BME280;37372;52.294;5.152;2023-05-19T01:52:46;102768.72;;;7.83;84.71
51289;BME280;37372;52.294;5.152;2023-05-19T01:55:12;102771.63;;;7.81;84.78
51289;BME280;37372;52.294;5.152;2023-05-19T01:57:54;102766.47;;;7.78;85.08
51289;BME280;37372;52.294;5.152;2023-05-19T02:03:24;102772.25;;;7.67;85.47
51289;BME280;37372;52.294;5.152;2023-05-19T02:06:01;102773.81;;;7.70;86.65
51289;BME280;37372;52.294;5.152;2023-05-19T02:08:33;102777.75;;;7.75;85.39
51289;BME280;37372;52.294;5.152;2023-05-19T02:11:14;102774.00;;;7.76;85.88
51289;BME280;37372;52.294;5.152;2023-05-19T02:13:43;102771.59;;;7.73;85.62
51289;BME280;37372;52.294;5.152;2023-05-19T02:16:12;102773.16;;;7.76;85.80
51289;BME280;37372;52.294;5.152;2023-05-19T02:18:39;102767.47;;;7.69;86.35
51289;BME280;37372;52.294;5.152;2023-05-19T02:21:13;102771.75;;;7.72;86.39
51289;BME280;37372;52.294;5.152;2023-05-19T02:23:39;102767.47;;;7.69;86.30
51289;BME280;37372;52.294;5.152;2023-05-19T02:26:06;102770.03;;;7.63;85.49
51289;BME280;37372;52.294;5.152;2023-05-19T02:28:35;102761.16;;;7.60;86.61
51289;BME280;37372;52.294;5.152;2023-05-19T02:31:03;102764.00;;;7.59;86.21
51289;BME280;37372;52.294;5.152;2023-05-19T02:33:33;102763.03;;;7.60;87.33
51289;BME280;37372;52.294;5.152;2023-05-19T02:35:59;102759.56;;;7.58;86.94
51289;BME280;37372;52.294;5.152;2023-05-19T02:38:25;102756.28;;;7.46;87.48
51289;BME280;37372;52.294;5.152;2023-05-19T02:40:51;102750.50;;;7.49;87.80
51289;BME280;37372;52.294;5.152;2023-05-19T02:43:30;102744.50;;;7.46;88.03
51289;BME280;37372;52.294;5.152;2023-05-19T02:45:56;102744.16;;;7.41;88.35
51289;BME280;37372;52.294;5.152;2023-05-19T02:48:22;102744.31;;;7.39;88.60
51289;BME280;37372;52.294;5.152;2023-05-19T02:50:47;102744.50;;;7.46;88.09
51289;BME280;37372;52.294;5.152;2023-05-19T02:53:20;102748.63;;;7.50;87.71
51289;BME280;37372;52.294;5.152;2023-05-19T02:55:48;102745.34;;;7.46;87.77
51289;BME280;37372;52.294;5.152;2023-05-19T02:58:21;102743.28;;;7.40;88.76
51289;BME280;37372;52.294;5.152;2023-05-19T03:00:47;102742.97;;;7.43;88.54
51289;BME280;37372;52.294;5.152;2023-05-19T03:03:12;102737.31;;;7.37;88.42
51289;BME280;37372;52.294;5.152;2023-05-19T03:05:40;102736.09;;;7.39;88.68
51289;BME280;37372;52.294;5.152;2023-05-19T03:08:12;102744.31;;;7.39;88.96
51289;BME280;37372;52.294;5.152;2023-05-19T03:10:38;102740.03;;;7.37;89.00
51289;BME280;37372;52.294;5.152;2023-05-19T03:13:04;102734.03;;;7.33;89.35
51289;BME280;37372;52.294;5.152;2023-05-19T03:15:30;102738.63;;;7.32;88.95
51289;BME280;37372;52.294;5.152;2023-05-19T03:17:56;102738.13;;;7.29;89.48
51289;BME280;37372;52.294;5.152;2023-05-19T03:20:22;102731.47;;;7.31;89.85
51289;BME280;37372;52.294;5.152;2023-05-19T03:22:49;102734.22;;;7.40;90.08
51289;BME280;37372;52.294;5.152;2023-05-19T03:25:15;102735.59;;;7.36;89.31
51289;BME280;37372;52.294;5.152;2023-05-19T03:27:41;102736.28;;;7.38;90.12
51289;BME280;37372;52.294;5.152;2023-05-19T03:30:08;102741.06;;;7.36;89.55
51289;BME280;37372;52.294;5.152;2023-05-19T03:32:34;102724.81;;;7.34;89.84
51289;BME280;37372;52.294;5.152;2023-05-19T03:35:03;102726.19;;;7.30;89.88
51289;BME280;37372;52.294;5.152;2023-05-19T03:37:33;102718.38;;;7.35;90.75
51289;BME280;37372;52.294;5.152;2023-05-19T03:39:58;102727.41;;;7.36;90.73
51289;BME280;37372;52.294;5.152;2023-05-19T03:42:24;102721.41;;;7.32;90.23
51289;BME280;37372;52.294;5.152;2023-05-19T03:44:50;102716.97;;;7.31;90.17
51289;BME280;37372;52.294;5.152;2023-05-19T03:47:16;102720.91;;;7.37;90.69
51289;BME280;37372;52.294;5.152;2023-05-19T03:49:51;102723.66;;;7.37;90.40
51289;BME280;37372;52.294;5.152;2023-05-19T03:52:16;102726.00;;;7.31;90.96
51289;BME280;37372;52.294;5.152;2023-05-19T03:54:42;102713.69;;;7.27;90.92
51289;BME280;37372;52.294;5.152;2023-05-19T03:57:12;102723.44;;;7.30;90.79
51289;BME280;37372;52.294;5.152;2023-05-19T03:59:38;102711.69;;;7.29;90.98
51289;BME280;37372;52.294;5.152;2023-05-19T04:02:07;102716.13;;;7.30;91.25
51289;BME280;37372;52.294;5.152;2023-05-19T04:04:33;102721.22;;;7.33;90.82
51289;BME280;37372;52.294;5.152;2023-05-19T04:06:58;102720.38;;;7.33;90.40
51289;BME280;37372;52.294;5.152;2023-05-19T04:09:24;102717.34;;;7.36;91.13
51289;BME280;37372;52.294;5.152;2023-05-19T04:11:50;102718.19;;;7.37;90.36
51289;BME280;37372;52.294;5.152;2023-05-19T04:14:15;102720.56;;;7.40;91.12
51289;BME280;37372;52.294;5.152;2023-05-19T04:16:41;102722.63;;;7.38;91.96
51289;BME280;37372;52.294;5.152;2023-05-19T04:19:06;102723.09;;;7.33;90.97
51289;BME280;37372;52.294;5.152;2023-05-19T04:21:32;102723.00;;;7.43;91.14
51289;BME280;37372;52.294;5.152;2023-05-19T04:24:07;102731.88;;;7.45;91.44
51289;BME280;37372;52.294;5.152;2023-05-19T04:26:33;102725.19;;;7.39;91.29
51289;BME280;37372;52.294;5.152;2023-05-19T04:29:00;102733.38;;;7.39;91.49
51289;BME280;37372;52.294;5.152;2023-05-19T04:31:28;102736.28;;;7.38;91.52
51289;BME280;37372;52.294;5.152;2023-05-19T04:33:59;102732.22;;;7.42;92.18
51289;BME280;37372;52.294;5.152;2023-05-19T04:36:28;102740.75;;;7.47;92.07
51289;BME280;37372;52.294;5.152;2023-05-19T04:39:04;102737.13;;;7.38;91.62
51289;BME280;37372;52.294;5.152;2023-05-19T04:41:33;102738.56;;;7.50;91.78
51289;BME280;37372;52.294;5.152;2023-05-19T04:43:59;102734.97;;;7.50;91.90
51289;BME280;37372;52.294;5.152;2023-05-19T04:46:25;102736.38;;;7.54;91.59
51289;BME280;37372;52.294;5.152;2023-05-19T04:48:51;102729.03;;;7.54;91.86
51289;BME280;37372;52.294;5.152;2023-05-19T04:51:17;102733.47;;;7.55;91.54
51289;BME280;37372;52.294;5.152;2023-05-19T04:53:47;102736.38;;;7.54;91.86
51289;BME280;37372;52.294;5.152;2023-05-19T04:56:13;102733.66;;;7.62;92.11
51289;BME280;37372;52.294;5.152;2023-05-19T04:58:48;102736.22;;;7.64;91.67
51289;BME280;37372;52.294;5.152;2023-05-19T05:01:14;102748.53;;;7.68;91.77
51289;BME280;37372;52.294;5.152;2023-05-19T05:03:49;102750.75;;;7.72;91.97
51289;BME280;37372;52.294;5.152;2023-05-19T05:06:15;102743.25;;;7.74;91.58
51289;BME280;37372;52.294;5.152;2023-05-19T05:11:31;102742.75;;;7.79;91.64
51289;BME280;37372;52.294;5.152;2023-05-19T05:13:57;102745.00;;;7.83;91.53
51289;BME280;37372;52.294;5.152;2023-05-19T05:16:24;102743.31;;;7.91;91.23
51289;BME280;37372;52.294;5.152;2023-05-19T05:18:50;102747.25;;;7.96;91.23
51289;BME280;37372;52.294;5.152;2023-05-19T05:21:19;102748.09;;;8.05;91.17
51289;BME280;37372;52.294;5.152;2023-05-19T05:23:54;102755.50;;;8.12;90.25
51289;BME280;37372;52.294;5.152;2023-05-19T05:26:21;102748.69;;;8.25;90.31
51289;BME280;37372;52.294;5.152;2023-05-19T05:28:59;102756.44;;;8.37;89.69
51289;BME280;37372;52.294;5.152;2023-05-19T05:31:24;102755.22;;;8.48;89.08
51289;BME280;37372;52.294;5.152;2023-05-19T05:34:00;102755.75;;;8.60;88.77
51289;BME280;37372;52.294;5.152;2023-05-19T05:36:25;102752.16;;;8.59;87.10
51289;BME280;37372;52.294;5.152;2023-05-19T05:38:52;102757.97;;;8.64;87.66
51289;BME280;37372;52.294;5.152;2023-05-19T05:41:17;102759.16;;;8.78;86.08
51289;BME280;37372;52.294;5.152;2023-05-19T05:43:43;102753.34;;;8.89;85.73
51289;BME280;37372;52.294;5.152;2023-05-19T05:46:08;102750.25;;;8.92;85.76
51289;BME280;37372;52.294;5.152;2023-05-19T05:48:39;102749.88;;;9.04;85.72
51289;BME280;37372;52.294;5.152;2023-05-19T05:51:12;102748.19;;;9.03;85.14
51289;BME280;37372;52.294;5.152;2023-05-19T05:53:40;102751.88;;;9.26;85.14
51289;BME280;37372;52.294;5.152;2023-05-19T05:56:12;102751.88;;;9.34;84.50
51289;BME280;37372;52.294;5.152;2023-05-19T05:58:47;102755.25;;;9.44;84.49
51289;BME280;37372;52.294;5.152;2023-05-19T06:01:15;102747.31;;;9.58;83.58
51289;BME280;37372;52.294;5.152;2023-05-19T06:03:42;102752.75;;;9.66;82.91
51289;BME280;37372;52.294;5.152;2023-05-19T06:06:24;102760.31;;;9.64;81.22
51289;BME280;37372;52.294;5.152;2023-05-19T06:09:13;102757.91;;;9.69;80.54
51289;BME280;37372;52.294;5.152;2023-05-19T06:11:39;102762.66;;;9.75;81.54
51289;BME280;37372;52.294;5.152;2023-05-19T06:14:07;102755.56;;;9.89;80.61
51289;BME280;37372;52.294;5.152;2023-05-19T06:16:36;102757.06;;;9.99;80.72
51289;BME280;37372;52.294;5.152;2023-05-19T06:19:12;102746.69;;;10.10;79.01
51289;BME280;37372;52.294;5.152;2023-05-19T06:21:44;102749.56;;;10.24;77.13
51289;BME280;37372;52.294;5.152;2023-05-19T06:24:10;102757.66;;;10.18;77.79
51289;BME280;37372;52.294;5.152;2023-05-19T06:26:36;102758.09;;;10.29;77.57
51289;BME280;37372;52.294;5.152;2023-05-19T06:29:14;102746.81;;;10.47;76.12
51289;BME280;37372;52.294;5.152;2023-05-19T06:31:41;102752.41;;;10.54;76.45
51289;BME280;37372;52.294;5.152;2023-05-19T06:34:07;102751.09;;;10.50;78.89
51289;BME280;37372;52.294;5.152;2023-05-19T06:36:38;102746.16;;;10.45;79.52
51289;BME280;37372;52.294;5.152;2023-05-19T06:39:07;102750.28;;;10.41;80.06
51289;BME280;37372;52.294;5.152;2023-05-19T06:41:40;102743.75;;;10.42;79.62
51289;BME280;37372;52.294;5.152;2023-05-19T06:44:07;102745.03;;;10.54;80.14
51289;BME280;37372;52.294;5.152;2023-05-19T06:46:35;102738.16;;;10.58;80.05
51289;BME280;37372;52.294;5.152;2023-05-19T06:49:11;102747.84;;;10.46;80.65
51289;BME280;37372;52.294;5.152;2023-05-19T06:51:38;102745.00;;;10.63;80.25
51289;BME280;37372;52.294;5.152;2023-05-19T06:54:18;102746.31;;;10.67;78.57
51289;BME280;37372;52.294;5.152;2023-05-19T06:56:44;102744.09;;;10.85;79.24
51289;BME280;37372;52.294;5.152;2023-05-19T06:59:18;102745.22;;;10.76;78.71
51289;BME280;37372;52.294;5.152;2023-05-19T07:01:45;102748.53;;;10.86;78.00
51289;BME280;37372;52.294;5.152;2023-05-19T07:04:12;102748.75;;;10.99;77.29
51289;BME280;37372;52.294;5.152;2023-05-19T07:06:44;102750.44;;;11.00;77.56
51289;BME280;37372;52.294;5.152;2023-05-19T07:09:16;102755.69;;;11.25;77.92
51289;BME280;37372;52.294;5.152;2023-05-19T07:11:42;102757.78;;;11.52;75.34
51289;BME280;37372;52.294;5.152;2023-05-19T07:14:14;102757.88;;;11.59;75.92
51289;BME280;37372;52.294;5.152;2023-05-19T07:16:40;102752.38;;;11.74;75.35
51289;BME280;37372;52.294;5.152;2023-05-19T07:19:20;102761.75;;;11.94;75.23
51289;BME280;37372;52.294;5.152;2023-05-19T07:21:55;102745.47;;;12.14;73.99
51289;BME280;37372;52.294;5.152;2023-05-19T07:24:31;102751.41;;;11.96;74.65
51289;BME280;37372;52.294;5.152;2023-05-19T07:26:57;102751.03;;;11.84;74.49
51289;BME280;37372;52.294;5.152;2023-05-19T07:29:22;102746.09;;;11.95;72.98
51289;BME280;37372;52.294;5.152;2023-05-19T07:31:51;102752.31;;;12.18;73.00
51289;BME280;37372;52.294;5.152;2023-05-19T07:34:59;102745.94;;;12.17;72.66
51289;BME280;37372;52.294;5.152;2023-05-19T07:37:28;102751.66;;;12.37;71.45
51289;BME280;37372;52.294;5.152;2023-05-19T07:39:57;102746.06;;;12.52;71.43
51289;BME280;37372;52.294;5.152;2023-05-19T07:42:22;102745.28;;;12.58;70.01
51289;BME280;37372;52.294;5.152;2023-05-19T07:44:48;102743.50;;;12.29;69.35
51289;BME280;37372;52.294;5.152;2023-05-19T07:47:13;102743.91;;;12.69;69.70
51289;BME280;37372;52.294;5.152;2023-05-19T07:49:41;102738.78;;;12.66;68.99
51289;BME280;37372;52.294;5.152;2023-05-19T07:52:07;102739.84;;;12.65;68.83
51289;BME280;37372;52.294;5.152;2023-05-19T07:54:42;102736.19;;;12.58;67.80
51289;BME280;37372;52.294;5.152;2023-05-19T07:57:07;102738.72;;;12.59;69.63
51289;BME280;37372;52.294;5.152;2023-05-19T07:59:32;102733.88;;;12.61;70.28
51289;BME280;37372;52.294;5.152;2023-05-19T08:02:02;102733.53;;;12.71;67.90
51289;BME280;37372;52.294;5.152;2023-05-19T08:04:31;102736.78;;;12.81;69.74
51289;BME280;37372;52.294;5.152;2023-05-19T08:06:57;102732.00;;;12.90;69.17
51289;BME280;37372;52.294;5.152;2023-05-19T08:09:32;102731.88;;;13.05;66.82
51289;BME280;37372;52.294;5.152;2023-05-19T08:11:57;102721.34;;;13.08;66.26
51289;BME280;37372;52.294;5.152;2023-05-19T08:14:35;102726.34;;;12.98;67.59
51289;BME280;37372;52.294;5.152;2023-05-19T08:17:00;102718.72;;;13.00;67.09
51289;BME280;37372;52.294;5.152;2023-05-19T08:19:26;102725.22;;;12.92;65.82
51289;BME280;37372;52.294;5.152;2023-05-19T08:22:01;102728.44;;;12.96;67.74
51289;BME280;37372;52.294;5.152;2023-05-19T08:24:30;102725.59;;;12.83;67.47
51289;BME280;37372;52.294;5.152;2023-05-19T08:27:06;102729.25;;;12.90;67.43
51289;BME280;37372;52.294;5.152;2023-05-19T08:29:32;102718.88;;;12.92;65.33
51289;BME280;37372;52.294;5.152;2023-05-19T08:32:16;102722.09;;;12.95;66.84
51289;BME280;37372;52.294;5.152;2023-05-19T08:34:42;102712.41;;;13.06;66.81
51289;BME280;37372;52.294;5.152;2023-05-19T08:37:08;102703.56;;;13.17;66.55
51289;BME280;37372;52.294;5.152;2023-05-19T08:39:34;102704.38;;;13.11;64.46
51289;BME280;37372;52.294;5.152;2023-05-19T08:42:11;102703.22;;;13.20;66.22
51289;BME280;37372;52.294;5.152;2023-05-19T08:44:58;102700.81;;;13.17;63.84
51289;BME280;37372;52.294;5.152;2023-05-19T08:47:28;102697.72;;;13.20;63.49
51289;BME280;37372;52.294;5.152;2023-05-19T08:50:04;102694.47;;;13.17;63.50
51289;BME280;37372;52.294;5.152;2023-05-19T08:53:00;102702.78;;;13.23;63.21
51289;BME280;37372;52.294;5.152;2023-05-19T08:55:30;102697.06;;;13.25;62.41
51289;BME280;37372;52.294;5.152;2023-05-19T08:58:02;102692.41;;;13.25;61.81
51289;BME280;37372;52.294;5.152;2023-05-19T09:00:29;102690.50;;;13.26;61.32
51289;BME280;37372;52.294;5.152;2023-05-19T09:02:56;102686.47;;;13.22;61.36
51289;BME280;37372;52.294;5.152;2023-05-19T09:05:22;102686.75;;;13.34;63.41
51289;BME280;37372;52.294;5.152;2023-05-19T09:07:48;102682.53;;;13.44;60.00
51289;BME280;37372;52.294;5.152;2023-05-19T09:10:13;102688.31;;;13.49;60.88
51289;BME280;37372;52.294;5.152;2023-05-19T09:12:42;102692.78;;;13.57;57.88
51289;BME280;37372;52.294;5.152;2023-05-19T09:15:34;102691.94;;;13.57;58.95
51289;BME280;37372;52.294;5.152;2023-05-19T09:18:13;102690.25;;;13.62;58.45
51289;BME280;37372;52.294;5.152;2023-05-19T09:20:46;102685.38;;;13.64;58.01
51289;BME280;37372;52.294;5.152;2023-05-19T09:23:16;102680.56;;;13.73;57.84
51289;BME280;37372;52.294;5.152;2023-05-19T09:25:52;102684.00;;;13.88;57.42
51289;BME280;37372;52.294;5.152;2023-05-19T09:28:28;102682.53;;;13.99;56.78
51289;BME280;37372;52.294;5.152;2023-05-19T09:31:08;102675.97;;;14.00;54.84
51289;BME280;37372;52.294;5.152;2023-05-19T09:33:39;102688.88;;;13.93;54.59
51289;BME280;37372;52.294;5.152;2023-05-19T09:36:19;102691.22;;;13.96;55.02
51289;BME280;37372;52.294;5.152;2023-05-19T09:38:44;102692.09;;;14.09;54.91
51289;BME280;37372;52.294;5.152;2023-05-19T09:41:13;102675.34;;;14.04;55.43
51289;BME280;37372;52.294;5.152;2023-05-19T09:43:38;102683.19;;;14.07;57.74
51289;BME280;37372;52.294;5.152;2023-05-19T09:46:05;102679.81;;;14.19;55.85
51289;BME280;37372;52.294;5.152;2023-05-19T09:48:37;102684.06;;;14.21;60.68
51289;BME280;37372;52.294;5.152;2023-05-19T09:51:11;102683.84;;;14.23;55.66
51289;BME280;37372;52.294;5.152;2023-05-19T09:53:37;102679.59;;;14.14;56.32
51289;BME280;37372;52.294;5.152;2023-05-19T09:56:03;102686.59;;;14.36;57.59
51289;BME280;37372;52.294;5.152;2023-05-19T09:58:32;102681.06;;;14.16;53.84
51289;BME280;37372;52.294;5.152;2023-05-19T10:01:03;102674.94;;;14.27;54.27
51289;BME280;37372;52.294;5.152;2023-05-19T10:03:38;102681.75;;;14.31;56.42
51289;BME280;37372;52.294;5.152;2023-05-19T10:06:04;102666.88;;;14.32;52.77
51289;BME280;37372;52.294;5.152;2023-05-19T10:08:32;102683.25;;;14.54;55.49
51289;BME280;37372;52.294;5.152;2023-05-19T10:11:01;102673.88;;;14.42;53.21
51289;BME280;37372;52.294;5.152;2023-05-19T10:13:28;102677.06;;;14.32;53.00
51289;BME280;37372;52.294;5.152;2023-05-19T10:16:05;102665.81;;;14.33;49.58
51289;BME280;37372;52.294;5.152;2023-05-19T10:18:32;102674.31;;;14.32;50.19
51289;BME280;37372;52.294;5.152;2023-05-19T10:20:58;102676.84;;;14.33;50.67
51289;BME280;37372;52.294;5.152;2023-05-19T10:23:25;102671.97;;;14.35;49.99
51289;BME280;37372;52.294;5.152;2023-05-19T10:25:55;102667.94;;;14.45;52.09
51289;BME280;37372;52.294;5.152;2023-05-19T10:28:31;102666.06;;;14.65;50.28
51289;BME280;37372;52.294;5.152;2023-05-19T10:31:01;102669.00;;;14.90;49.24
51289;BME280;37372;52.294;5.152;2023-05-19T10:36:43;102667.50;;;14.87;49.90
51289;BME280;37372;52.294;5.152;2023-05-19T10:39:40;102656.84;;;15.04;51.74
51289;BME280;37372;52.294;5.152;2023-05-19T10:42:20;102642.41;;;15.09;47.99
51289;BME280;37372;52.294;5.152;2023-05-19T10:47:40;102646.25;;;15.01;49.82
51289;BME280;37372;52.294;5.152;2023-05-19T10:50:07;102639.19;;;15.05;47.88
51289;BME280;37372;52.294;5.152;2023-05-19T10:52:36;102641.47;;;15.28;49.79
51289;BME280;37372;52.294;5.152;2023-05-19T10:55:02;102636.31;;;15.38;51.35
51289;BME280;37372;52.294;5.152;2023-05-19T10:57:29;102643.47;;;15.01;48.13
51289;BME280;37372;52.294;5.152;2023-05-19T11:00:03;102634.31;;;15.14;50.14
51289;BME280;37372;52.294;5.152;2023-05-19T11:02:40;102639.97;;;15.26;48.18
51289;BME280;37372;52.294;5.152;2023-05-19T11:05:15;102635.38;;;15.06;48.17
51289;BME280;37372;52.294;5.152;2023-05-19T11:07:44;102637.94;;;15.08;47.43
51289;BME280;37372;52.294;5.152;2023-05-19T11:10:22;102641.03;;;15.31;47.26
51289;BME280;37372;52.294;5.152;2023-05-19T11:12:51;102638.91;;;15.33;49.05
51289;BME280;37372;52.294;5.152;2023-05-19T11:15:17;102640.09;;;15.51;47.80
51289;BME280;37372;52.294;5.152;2023-05-19T11:17:46;102633.91;;;15.62;46.03
51289;BME280;37372;52.294;5.152;2023-05-19T11:20:28;102623.53;;;15.89;48.89
51289;BME280;37372;52.294;5.152;2023-05-19T11:23:06;102635.25;;;15.91;46.47
51289;BME280;37372;52.294;5.152;2023-05-19T11:25:48;102635.28;;;15.84;45.20
51289;BME280;37372;52.294;5.152;2023-05-19T11:28:21;102628.06;;;15.77;45.59
51289;BME280;37372;52.294;5.152;2023-05-19T11:30:50;102628.75;;;15.72;46.14
51289;BME280;37372;52.294;5.152;2023-05-19T11:33:19;102626.53;;;15.87;47.91
51289;BME280;37372;52.294;5.152;2023-05-19T11:35:46;102628.44;;;15.87;46.67
51289;BME280;37372;52.294;5.152;2023-05-19T11:38:19;102627.84;;;15.85;43.87
51289;BME280;37372;52.294;5.152;2023-05-19T11:40:51;102622.41;;;15.96;49.25
51289;BME280;37372;52.294;5.152;2023-05-19T11:43:17;102618.09;;;16.07;48.38
51289;BME280;37372;52.294;5.152;2023-05-19T11:45:43;102617.66;;;16.10;47.63
51289;BME280;37372;52.294;5.152;2023-05-19T11:48:12;102617.09;;;15.95;49.89
51289;BME280;37372;52.294;5.152;2023-05-19T11:50:41;102625.91;;;15.85;52.96
51289;BME280;37372;52.294;5.152;2023-05-19T11:53:11;102624.91;;;15.73;49.62
51289;BME280;37372;52.294;5.152;2023-05-19T11:55:44;102621.97;;;15.61;53.84
51289;BME280;37372;52.294;5.152;2023-05-19T11:58:10;102627.81;;;15.40;53.00
51289;BME280;37372;52.294;5.152;2023-05-19T12:00:41;102610.09;;;15.54;53.26
51289;BME280;37372;52.294;5.152;2023-05-19T12:03:19;102622.72;;;15.37;52.92
51289;BME280;37372;52.294;5.152;2023-05-19T12:05:47;102617.75;;;15.59;53.83
51289;BME280;37372;52.294;5.152;2023-05-19T12:08:13;102616.44;;;15.68;53.75
51289;BME280;37372;52.294;5.152;2023-05-19T12:10:39;102617.00;;;15.77;52.65
51289;BME280;37372;52.294;5.152;2023-05-19T12:13:08;102615.44;;;15.87;52.99
51289;BME280;37372;52.294;5.152;2023-05-19T12:15:33;102607.75;;;15.89;51.60
51289;BME280;37372;52.294;5.152;2023-05-19T12:18:00;102606.44;;;15.98;52.48
51289;BME280;37372;52.294;5.152;2023-05-19T12:20:28;102602.94;;;15.85;50.77
51289;BME280;37372;52.294;5.152;2023-05-19T12:22:58;102602.41;;;15.63;52.08
51289;BME280;37372;52.294;5.152;2023-05-19T12:25:24;102596.44;;;15.66;50.01
51289;BME280;37372;52.294;5.152;2023-05-19T12:27:51;102583.97;;;15.82;51.63
51289;BME280;37372;52.294;5.152;2023-05-19T12:30:25;102589.03;;;15.91;50.93
51289;BME280;37372;52.294;5.152;2023-05-19T12:33:01;102591.84;;;16.10;52.54
51289;BME280;37372;52.294;5.152;2023-05-19T12:35:28;102593.09;;;15.89;49.55
51289;BME280;37372;52.294;5.152;2023-05-19T12:38:04;102588.13;;;16.22;49.71
51289;BME280;37372;52.294;5.152;2023-05-19T12:40:34;102577.50;;;16.44;52.03
51289;BME280;37372;52.294;5.152;2023-05-19T12:43:00;102580.97;;;16.15;47.54
51289;BME280;37372;52.294;5.152;2023-05-19T12:45:25;102577.06;;;16.22;51.29
51289;BME280;37372;52.294;5.152;2023-05-19T12:48:20;102576.13;;;16.10;48.69
51289;BME280;37372;52.294;5.152;2023-05-19T12:50:46;102576.09;;;16.35;52.44
51289;BME280;37372;52.294;5.152;2023-05-19T12:53:13;102578.28;;;16.02;48.15
51289;BME280;37372;52.294;5.152;2023-05-19T12:55:44;102575.41;;;15.90;47.07
51289;BME280;37372;52.294;5.152;2023-05-19T12:58:10;102583.13;;;16.13;49.60
51289;BME280;37372;52.294;5.152;2023-05-19T13:00:47;102567.22;;;16.02;48.02
51289;BME280;37372;52.294;5.152;2023-05-19T13:03:16;102578.41;;;16.13;50.26
51289;BME280;37372;52.294;5.152;2023-05-19T13:05:43;102572.81;;;16.20;49.32
51289;BME280;37372;52.294;5.152;2023-05-19T13:08:15;102572.16;;;16.00;49.25
51289;BME280;37372;52.294;5.152;2023-05-19T13:10:50;102558.69;;;16.03;49.63
51289;BME280;37372;52.294;5.152;2023-05-19T13:13:16;102567.78;;;15.85;49.42
51289;BME280;37372;52.294;5.152;2023-05-19T13:15:43;102564.28;;;15.96;50.25
51289;BME280;37372;52.294;5.152;2023-05-19T13:18:18;102561.47;;;16.03;49.36
51289;BME280;37372;52.294;5.152;2023-05-19T13:20:44;102561.97;;;16.18;51.15
51289;BME280;37372;52.294;5.152;2023-05-19T13:23:14;102565.25;;;16.34;47.58
51289;BME280;37372;52.294;5.152;2023-05-19T13:25:43;102554.69;;;16.24;48.61
51289;BME280;37372;52.294;5.152;2023-05-19T13:28:08;102556.03;;;16.40;49.23
51289;BME280;37372;52.294;5.152;2023-05-19T13:30:39;102562.81;;;16.44;49.09
51289;BME280;37372;52.294;5.152;2023-05-19T13:33:09;102553.13;;;16.53;50.31
51289;BME280;37372;52.294;5.152;2023-05-19T13:35:35;102559.50;;;16.78;49.87
51289;BME280;37372;52.294;5.152;2023-05-19T13:38:05;102553.88;;;16.85;49.07